Time;durP1;ratioP1;P1;durP2;ratioP2;P2;SDS_P1;SDS_P2;PMS_P1;PMS_P2;Temp;Humidity;BMP_temperature;BMP_pressure;BME280_temperature;BME280_humidity;BME280_pressure;Samples;Min_cycle;Max_cycle;Signal;HPM_P1;HPM_P2
2022/07/09 04:14:27;;;;;;;1.67;1.55;;;20.50;69.40;;;;;;5005392;28;20403;-20
2022/07/09 04:16:53;;;;;;;1.20;1.10;;;20.60;69.90;;;;;;4993525;28;20108;-23
2022/07/09 04:19:18;;;;;;;1.73;1.08;;;20.60;69.90;;;;;;5005302;28;20456;-21
2022/07/09 04:21:44;;;;;;;1.23;1.17;;;20.60;69.70;;;;;;5000522;28;20042;-22
2022/07/09 04:24:10;;;;;;;1.48;1.08;;;20.60;69.70;;;;;;5006721;28;20050;-23
2022/07/09 04:26:35;;;;;;;1.42;1.33;;;20.60;69.80;;;;;;5003774;28;20134;-20
2022/07/09 04:29:01;;;;;;;1.10;1.10;;;20.60;69.60;;;;;;4987855;28;20043;-20
2022/07/09 04:31:26;;;;;;;2.08;1.00;;;20.60;69.70;;;;;;4987561;28;20047;-20
2022/07/09 04:33:52;;;;;;;1.65;1.30;;;20.60;69.60;;;;;;4995562;28;20058;-21
2022/07/09 04:36:17;;;;;;;1.25;1.15;;;20.60;69.60;;;;;;5001854;28;20062;-22
2022/07/09 04:38:43;;;;;;;1.55;1.45;;;20.60;69.70;;;;;;4987730;28;20045;-21
2022/07/09 04:41:08;;;;;;;1.20;1.08;;;20.50;69.60;;;;;;4995279;28;20125;-20
2022/07/09 04:43:34;;;;;;;1.77;1.23;;;20.60;69.60;;;;;;4995816;28;20042;-20
2022/07/09 04:46:00;;;;;;;1.58;1.17;;;20.50;69.60;;;;;;4995754;28;20153;-20
2022/07/09 04:48:26;;;;;;;1.20;1.10;;;20.50;69.80;;;;;;4986600;28;20042;-21
2022/07/09 04:50:51;;;;;;;1.25;1.10;;;20.50;69.90;;;;;;4987617;28;20061;-21
2022/07/09 04:53:17;;;;;;;1.95;1.20;;;20.50;70.10;;;;;;4975031;28;20107;-21
2022/07/09 04:55:42;;;;;;;1.42;1.33;;;20.50;70.00;;;;;;4994938;28;20137;-21
2022/07/09 04:58:08;;;;;;;1.50;1.40;;;20.50;69.90;;;;;;4999527;28;20043;-20
2022/07/09 05:00:34;;;;;;;1.48;1.38;;;20.50;70.30;;;;;;5006255;28;20042;-21
2022/07/09 05:03:00;;;;;;;1.73;1.63;;;20.40;70.80;;;;;;5005536;28;20057;-21
2022/07/09 05:05:26;;;;;;;1.98;1.65;;;20.30;71.30;;;;;;4997532;28;20050;-24
2022/07/09 05:07:51;;;;;;;1.85;1.75;;;20.20;72.10;;;;;;5006115;28;20050;-20
2022/07/09 05:10:17;;;;;;;1.60;1.50;;;20.10;72.60;;;;;;4638406;28;9999959;-22
2022/07/09 05:12:43;;;;;;;3.85;2.13;;;20.10;72.90;;;;;;4979587;28;20046;-21
2022/07/09 05:15:09;;;;;;;2.30;2.10;;;20.10;73.40;;;;;;4640270;28;10000410;-21
2022/07/09 05:17:35;;;;;;;2.10;1.90;;;19.90;74.40;;;;;;4993877;28;20043;-21
2022/07/09 05:20:06;;;;;;;1.90;1.77;;;19.90;74.40;;;;;;4693499;28;10001000;-24
2022/07/09 05:22:32;;;;;;;2.45;1.95;;;19.90;74.70;;;;;;4984246;28;20260;-20
2022/07/09 05:24:58;;;;;;;2.17;2.08;;;19.80;75.30;;;;;;4968810;28;20058;-20
2022/07/09 05:27:24;;;;;;;2.88;2.03;;;19.70;75.90;;;;;;4975521;28;20046;-20
2022/07/09 05:29:50;;;;;;;2.80;2.17;;;19.80;75.90;;;;;;4980370;28;20042;-20
2022/07/09 05:32:16;;;;;;;2.40;2.20;;;19.70;77.20;;;;;;4971681;28;20767;-19
2022/07/09 05:34:41;;;;;;;2.20;2.00;;;19.70;77.30;;;;;;4984120;28;20069;-21
2022/07/09 05:37:07;;;;;;;2.63;2.42;;;19.50;77.40;;;;;;4973443;28;20043;-22
2022/07/09 05:39:32;;;;;;;2.17;2.08;;;19.70;77.20;;;;;;4965263;28;20415;-24
2022/07/09 05:41:58;;;;;;;2.40;2.20;;;19.70;77.30;;;;;;4961451;28;20167;-22
2022/07/09 05:44:23;;;;;;;2.20;2.10;;;19.70;78.40;;;;;;4958277;28;20659;-20
2022/07/09 05:46:49;;;;;;;2.40;2.30;;;19.60;78.00;;;;;;4976198;28;20161;-20
2022/07/09 05:49:15;;;;;;;2.55;2.45;;;19.60;77.90;;;;;;4982561;28;20046;-28
2022/07/09 05:51:40;;;;;;;2.42;2.22;;;19.60;78.10;;;;;;4977347;28;20584;-20
2022/07/09 05:54:06;;;;;;;3.03;2.78;;;19.60;78.40;;;;;;4981028;28;20031;-20
2022/07/09 05:56:31;;;;;;;2.53;2.30;;;19.60;78.30;;;;;;4973720;28;21569;-23
2022/07/09 05:58:57;;;;;;;2.30;2.17;;;19.60;78.40;;;;;;4976779;28;20046;-25
2022/07/09 06:01:23;;;;;;;3.13;2.92;;;19.60;78.40;;;;;;4982789;28;20038;-20
2022/07/09 06:03:48;;;;;;;3.67;2.40;;;19.60;78.60;;;;;;4977758;28;20057;-21
2022/07/09 06:06:14;;;;;;;2.58;2.47;;;19.60;78.80;;;;;;4979769;28;20054;-22
2022/07/09 06:08:39;;;;;;;3.00;2.80;;;19.60;78.60;;;;;;4980503;28;20132;-22
2022/07/09 06:11:05;;;;;;;2.60;2.50;;;19.60;78.90;;;;;;4974761;28;20160;-25
2022/07/09 06:13:31;;;;;;;2.70;2.50;;;19.70;78.40;;;;;;4984306;28;20045;-25
2022/07/09 06:15:56;;;;;;;3.25;2.45;;;19.70;78.00;;;;;;4981806;28;20523;-23
2022/07/09 06:18:22;;;;;;;2.72;2.53;;;19.80;77.80;;;;;;4982182;28;20030;-22
2022/07/09 06:20:48;;;;;;;2.70;2.60;;;19.70;77.60;;;;;;4978739;28;20492;-26
2022/07/09 06:23:13;;;;;;;2.72;2.53;;;19.80;78.50;;;;;;4978776;28;20042;-23
2022/07/09 06:25:39;;;;;;;2.60;2.50;;;19.80;77.30;;;;;;4979713;28;20046;-26
2022/07/09 06:28:05;;;;;;;3.47;2.33;;;19.90;77.30;;;;;;4981339;28;20041;-23
2022/07/09 06:30:32;;;;;;;2.42;2.33;;;19.90;77.40;;;;;;4979288;28;20042;-22
2022/07/09 06:32:57;;;;;;;2.70;2.50;;;19.90;77.40;;;;;;4981661;28;20050;-22
2022/07/09 06:35:23;;;;;;;3.28;2.70;;;19.90;77.50;;;;;;4975631;28;20207;-21
2022/07/09 06:37:49;;;;;;;3.60;2.63;;;19.90;77.80;;;;;;4982742;28;20101;-23
2022/07/09 06:40:14;;;;;;;2.30;2.10;;;19.90;77.60;;;;;;4977652;28;20065;-27
2022/07/09 06:42:40;;;;;;;3.78;3.05;;;20.00;77.90;;;;;;4967625;28;20583;-23
2022/07/09 06:45:07;;;;;;;2.65;2.45;;;20.00;77.90;;;;;;4979028;28;20041;-22
2022/07/09 06:47:32;;;;;;;2.78;2.53;;;20.00;78.10;;;;;;4979139;28;20042;-23
2022/07/09 06:49:58;;;;;;;2.70;2.50;;;20.00;78.00;;;;;;4980740;28;20042;-22
2022/07/09 06:52:24;;;;;;;3.33;2.28;;;20.10;77.90;;;;;;4974323;28;20045;-23
2022/07/09 06:54:49;;;;;;;2.80;2.58;;;20.10;78.00;;;;;;4973640;28;20633;-23
2022/07/09 06:57:16;;;;;;;2.47;2.30;;;20.10;78.00;;;;;;4978168;28;20073;-23
2022/07/09 06:59:42;;;;;;;2.72;2.53;;;20.10;78.10;;;;;;4958157;28;20537;-23
2022/07/09 07:02:07;;;;;;;2.70;2.50;;;20.10;79.30;;;;;;4978897;28;20128;-22
2022/07/09 07:04:33;;;;;;;3.22;2.30;;;20.20;77.90;;;;;;4982942;28;20109;-22
2022/07/09 07:06:59;;;;;;;3.03;2.60;;;20.20;78.10;;;;;;4981393;28;20034;-25
2022/07/09 07:09:24;;;;;;;2.58;2.38;;;20.20;78.40;;;;;;4983502;28;20133;-25
2022/07/09 07:11:50;;;;;;;2.83;2.63;;;20.20;78.90;;;;;;4974551;28;20039;-23
2022/07/09 07:14:16;;;;;;;2.40;2.20;;;20.20;78.00;;;;;;4982825;28;20046;-22
2022/07/09 07:16:42;;;;;;;2.38;2.22;;;20.20;78.10;;;;;;4966245;28;20501;-24
2022/07/09 07:19:08;;;;;;;2.38;2.17;;;20.20;78.00;;;;;;4980007;28;20038;-24
2022/07/09 07:21:34;;;;;;;2.10;1.90;;;20.30;78.30;;;;;;4986483;28;20054;-25
2022/07/09 07:23:59;;;;;;;1.98;1.88;;;20.40;78.10;;;;;;4986448;28;20431;-25
2022/07/09 07:26:25;;;;;;;2.85;2.20;;;20.40;77.40;;;;;;4983390;28;20432;-26
2022/07/09 07:28:51;;;;;;;2.40;2.20;;;20.40;77.80;;;;;;4985448;28;20579;-25
2022/07/09 07:31:16;;;;;;;2.30;2.10;;;20.40;76.60;;;;;;4984185;28;20070;-26
2022/07/09 07:33:43;;;;;;;1.95;1.83;;;20.50;75.90;;;;;;4982085;28;20570;-22
2022/07/09 07:36:08;;;;;;;2.05;1.88;;;20.60;76.10;;;;;;4969477;28;20504;-23
2022/07/09 07:38:34;;;;;;;1.80;1.70;;;20.60;75.30;;;;;;4971444;28;20042;-23
2022/07/09 07:41:00;;;;;;;1.95;1.80;;;20.70;74.90;;;;;;4972767;28;20062;-23
2022/07/09 07:43:25;;;;;;;1.98;1.88;;;20.70;75.30;;;;;;4974282;28;20054;-22
2022/07/09 07:45:51;;;;;;;2.13;1.90;;;20.70;74.90;;;;;;4971131;28;20082;-22
2022/07/09 07:48:16;;;;;;;1.85;1.73;;;20.80;74.60;;;;;;4972482;28;20455;-24
2022/07/09 07:50:42;;;;;;;1.98;1.70;;;20.80;74.40;;;;;;4970746;28;20058;-22
2022/07/09 07:53:08;;;;;;;1.60;1.50;;;20.80;74.40;;;;;;4973739;28;20248;-31
2022/07/09 07:55:33;;;;;;;1.65;1.55;;;20.90;74.20;;;;;;4973355;28;21606;-22
2022/07/09 07:57:59;;;;;;;1.50;1.40;;;20.80;73.80;;;;;;4972048;28;20632;-23
2022/07/09 08:00:25;;;;;;;1.45;1.20;;;20.90;74.10;;;;;;4971746;28;20095;-21
2022/07/09 08:02:50;;;;;;;1.38;1.27;;;20.90;74.00;;;;;;4973157;28;21458;-25
2022/07/09 08:05:16;;;;;;;1.67;1.55;;;21.00;74.00;;;;;;4973757;28;20050;-22
2022/07/09 08:07:42;;;;;;;1.40;1.30;;;20.90;73.60;;;;;;4972946;28;20058;-24
2022/07/09 08:10:08;;;;;;;1.30;1.20;;;21.00;73.40;;;;;;4970722;28;20153;-23
2022/07/09 08:12:33;;;;;;;1.15;1.15;;;21.10;73.20;;;;;;4971448;28;20050;-23
2022/07/09 08:14:59;;;;;;;1.02;1.02;;;21.10;73.00;;;;;;4972948;28;20070;-22
2022/07/09 08:17:25;;;;;;;2.60;1.45;;;21.10;73.10;;;;;;4972495;28;20073;-23
2022/07/09 08:19:50;;;;;;;1.00;1.00;;;21.10;73.00;;;;;;4969981;28;20100;-24
2022/07/09 08:22:16;;;;;;;1.27;1.17;;;21.20;72.80;;;;;;4988230;28;20042;-28
2022/07/09 08:24:42;;;;;;;2.10;1.00;;;21.20;72.70;;;;;;4984732;28;20189;-27
2022/07/09 08:27:07;;;;;;;1.25;1.15;;;21.20;73.20;;;;;;4983855;28;20042;-40
2022/07/09 08:29:33;;;;;;;1.85;1.13;;;21.10;72.60;;;;;;4984303;28;20046;-22
2022/07/09 08:31:59;;;;;;;1.10;1.00;;;21.20;72.90;;;;;;4983870;28;20547;-29
2022/07/09 08:34:24;;;;;;;0.82;0.82;;;21.20;72.20;;;;;;4985064;28;20046;-26
2022/07/09 08:36:50;;;;;;;1.02;1.00;;;21.30;72.50;;;;;;4983503;28;20034;-22
2022/07/09 08:39:15;;;;;;;1.15;1.05;;;21.30;72.50;;;;;;4978835;28;20059;-23
2022/07/09 08:41:42;;;;;;;1.77;0.98;;;21.30;72.50;;;;;;4982660;28;20058;-24
2022/07/09 08:44:10;;;;;;;0.68;0.68;;;21.30;73.00;;;;;;4986631;28;20128;-23
2022/07/09 08:46:36;;;;;;;1.00;1.00;;;21.30;72.00;;;;;;4984442;28;21484;-23
2022/07/09 08:49:01;;;;;;;0.63;0.63;;;21.40;72.10;;;;;;4984169;28;20500;-22
2022/07/09 08:51:27;;;;;;;0.88;0.88;;;21.40;72.60;;;;;;4986361;28;20038;-22
2022/07/09 08:53:53;;;;;;;0.98;0.98;;;21.40;71.90;;;;;;4983867;28;20068;-29
2022/07/09 08:56:19;;;;;;;0.80;0.80;;;21.40;71.80;;;;;;4987272;28;20042;-23
2022/07/09 08:58:45;;;;;;;0.85;0.85;;;21.40;71.50;;;;;;4987723;28;20405;-26
2022/07/09 09:01:14;;;;;;;1.02;1.02;;;21.40;71.50;;;;;;4987547;28;20069;-31
2022/07/09 09:03:41;;;;;;;0.90;0.90;;;21.50;71.50;;;;;;4990582;28;20054;-23
2022/07/09 09:06:08;;;;;;;1.00;1.00;;;21.50;71.40;;;;;;4988390;28;20073;-26
2022/07/09 09:08:35;;;;;;;1.02;1.02;;;21.50;70.90;;;;;;4987497;28;20057;-27
2022/07/09 09:11:01;;;;;;;1.42;0.90;;;21.50;70.60;;;;;;4988509;28;20413;-22
2022/07/09 09:13:27;;;;;;;0.90;0.90;;;21.50;71.30;;;;;;4980095;28;20086;-24
2022/07/09 09:16:13;;;;;;;0.70;0.70;;;21.50;70.80;;;;;;4978837;28;20066;-32
2022/07/09 09:18:45;;;;;;;0.70;0.70;;;21.50;70.90;;;;;;4966688;28;20042;-23
2022/07/09 09:21:11;;;;;;;0.60;0.60;;;21.50;70.90;;;;;;4981670;28;20038;-21
2022/07/09 09:23:50;;;;;;;0.60;0.60;;;21.60;70.60;;;;;;4990469;28;20050;-22
2022/07/09 09:26:26;;;;;;;0.70;0.63;;;21.60;70.50;;;;;;4987357;28;20066;-22
2022/07/09 09:28:52;;;;;;;0.88;0.82;;;21.60;70.40;;;;;;4983315;28;20046;-24
2022/07/09 09:31:18;;;;;;;0.85;0.80;;;21.60;70.50;;;;;;4975994;28;20034;-24
2022/07/09 09:33:44;;;;;;;1.73;0.73;;;21.60;70.30;;;;;;4985594;28;20161;-23
2022/07/09 09:36:09;;;;;;;0.80;0.80;;;21.70;70.20;;;;;;4980681;28;20118;-23
2022/07/09 09:38:35;;;;;;;1.83;0.60;;;21.60;70.00;;;;;;4967118;28;20038;-24
2022/07/09 09:41:00;;;;;;;0.50;0.50;;;21.70;69.80;;;;;;4977049;28;20054;-25
2022/07/09 09:43:26;;;;;;;0.77;0.77;;;21.70;69.90;;;;;;4968140;28;20047;-27
2022/07/09 09:45:51;;;;;;;0.47;0.47;;;21.80;69.70;;;;;;4966303;28;20089;-28
2022/07/09 09:48:18;;;;;;;0.80;0.80;;;21.80;69.60;;;;;;4981519;28;20054;-21
2022/07/09 09:50:44;;;;;;;0.70;0.70;;;21.80;69.20;;;;;;4987912;28;20038;-24
2022/07/09 09:53:09;;;;;;;0.70;0.70;;;21.80;69.10;;;;;;4987398;28;20630;-23
2022/07/09 09:55:35;;;;;;;0.70;0.70;;;21.80;69.80;;;;;;4985026;28;20096;-25
2022/07/09 09:58:00;;;;;;;0.52;0.52;;;21.90;68.80;;;;;;4956996;28;20049;-22
2022/07/09 10:00:27;;;;;;;0.50;0.50;;;21.80;69.30;;;;;;4987721;28;20050;-21
2022/07/09 10:02:52;;;;;;;0.82;0.82;;;21.80;69.60;;;;;;4983782;28;20457;-22
2022/07/09 10:05:18;;;;;;;0.68;0.68;;;21.80;70.50;;;;;;4967603;28;20178;-20
2022/07/09 10:07:44;;;;;;;1.27;0.85;;;21.80;70.40;;;;;;4970909;28;20505;-20
2022/07/09 10:10:20;;;;;;;0.60;0.60;;;21.80;70.40;;;;;;4986796;28;20057;-21
2022/07/09 10:12:45;;;;;;;1.00;0.40;;;21.80;70.40;;;;;;4977597;28;20035;-20
2022/07/09 10:15:26;;;;;;;0.60;0.60;;;21.80;70.30;;;;;;4985520;28;20412;-21
2022/07/09 10:17:52;;;;;;;0.68;0.68;;;21.70;70.30;;;;;;4987446;28;20050;-21
2022/07/09 10:20:17;;;;;;;0.40;0.40;;;21.70;70.30;;;;;;4987461;28;20042;-21
2022/07/09 10:22:47;;;;;;;0.50;0.50;;;21.70;70.10;;;;;;4987304;28;20039;-21
2022/07/09 10:25:28;;;;;;;0.60;0.60;;;21.70;70.20;;;;;;4986083;28;20515;-20
2022/07/09 10:27:53;;;;;;;0.70;0.70;;;21.70;70.10;;;;;;4959657;28;20074;-21
2022/07/09 10:30:23;;;;;;;0.60;0.60;;;21.70;70.00;;;;;;4977398;28;20038;-20
2022/07/09 10:33:00;;;;;;;0.50;0.50;;;21.70;70.00;;;;;;4965663;28;20070;-20
2022/07/09 10:35:26;;;;;;;0.43;0.43;;;21.70;70.10;;;;;;4981514;28;20109;-21
2022/07/09 10:37:53;;;;;;;0.47;0.47;;;21.70;70.00;;;;;;4988105;28;20500;-21
2022/07/09 10:40:19;;;;;;;0.60;0.60;;;21.70;70.00;;;;;;4988345;28;20406;-20
2022/07/09 10:42:45;;;;;;;0.60;0.50;;;21.70;69.80;;;;;;4984520;28;20529;-21
2022/07/09 10:45:28;;;;;;;0.50;0.50;;;21.70;69.70;;;;;;4985137;28;20038;-21
2022/07/09 10:47:58;;;;;;;0.50;0.50;;;21.80;69.40;;;;;;4975873;28;20133;-20
2022/07/09 10:50:24;;;;;;;0.60;0.60;;;21.80;69.70;;;;;;4962406;28;20043;-20
2022/07/09 10:52:50;;;;;;;0.50;0.50;;;21.80;69.60;;;;;;4973581;28;20133;-20
2022/07/09 10:55:22;;;;;;;0.40;0.40;;;21.80;69.60;;;;;;4982402;28;20129;-20
2022/07/09 10:57:48;;;;;;;0.50;0.50;;;21.80;69.40;;;;;;4977335;28;20157;-20
2022/07/09 11:00:17;;;;;;;0.95;0.50;;;21.80;69.40;;;;;;4967036;28;20494;-20
2022/07/09 11:02:53;;;;;;;0.85;0.40;;;21.80;69.50;;;;;;4982465;28;20046;-20
2022/07/09 11:05:19;;;;;;;0.43;0.43;;;21.80;69.50;;;;;;4968642;28;20038;-21
2022/07/09 11:08:00;;;;;;;0.50;0.50;;;21.80;69.50;;;;;;4966760;28;20436;-20
2022/07/09 11:10:27;;;;;;;0.55;0.55;;;21.80;69.60;;;;;;4966290;28;20100;-21
2022/07/09 11:12:58;;;;;;;0.60;0.60;;;21.80;70.70;;;;;;4980516;28;20101;-21
2022/07/09 11:15:26;;;;;;;0.90;0.50;;;21.90;69.40;;;;;;4964549;28;20523;-20
2022/07/09 11:18:18;;;;;;;0.55;0.50;;;21.90;69.20;;;;;;4970936;28;20050;-20
2022/07/09 11:20:45;;;;;;;0.40;0.40;;;21.90;69.30;;;;;;4971714;28;20125;-20
2022/07/09 11:23:11;;;;;;;0.47;0.47;;;21.90;69.20;;;;;;4983662;28;20058;-20
2022/07/09 11:25:37;;;;;;;0.38;0.38;;;21.90;69.20;;;;;;4984199;28;20046;-20
2022/07/09 11:28:03;;;;;;;0.50;0.50;;;21.90;69.00;;;;;;4985668;28;20448;-21
2022/07/09 11:30:29;;;;;;;0.40;0.40;;;21.90;69.20;;;;;;4985579;28;20135;-20
2022/07/09 11:32:54;;;;;;;0.40;0.40;;;21.90;69.00;;;;;;4973696;28;20101;-25
2022/07/09 11:35:33;;;;;;;0.38;0.38;;;21.90;69.00;;;;;;4977627;28;20043;-20
2022/07/09 11:38:00;;;;;;;0.40;0.40;;;22.00;68.90;;;;;;4979620;28;20056;-21
2022/07/09 11:40:26;;;;;;;1.05;0.40;;;22.00;69.00;;;;;;4971527;28;20055;-21
2022/07/09 11:42:52;;;;;;;0.30;0.30;;;22.00;68.60;;;;;;4973468;28;20092;-21
2022/07/09 11:45:24;;;;;;;0.25;0.25;;;22.00;69.00;;;;;;4977467;28;20141;-21
2022/07/09 11:47:50;;;;;;;0.35;0.35;;;22.10;68.60;;;;;;4981477;28;20038;-21
2022/07/09 11:50:18;;;;;;;0.38;0.38;;;22.00;68.50;;;;;;4980704;28;20088;-20
2022/07/09 11:52:47;;;;;;;0.50;0.50;;;22.10;68.40;;;;;;4972365;28;20049;-20
2022/07/09 11:55:35;;;;;;;0.30;0.30;;;22.10;68.40;;;;;;4962923;28;20054;-20
2022/07/09 11:58:08;;;;;;;0.45;0.45;;;22.10;69.30;;;;;;4972991;28;20508;-21
2022/07/09 12:00:34;;;;;;;0.40;0.40;;;22.10;68.50;;;;;;4981295;28;20047;-19
2022/07/09 12:03:00;;;;;;;0.50;0.50;;;22.10;68.30;;;;;;4961828;28;20047;-21
2022/07/09 12:05:35;;;;;;;0.55;0.55;;;22.10;68.30;;;;;;4977212;28;20046;-21
2022/07/09 12:08:04;;;;;;;0.43;0.43;;;22.10;68.30;;;;;;4981324;28;20057;-21
2022/07/09 12:10:32;;;;;;;0.35;0.35;;;22.20;68.40;;;;;;4982618;28;20149;-21
2022/07/09 12:12:58;;;;;;;0.32;0.32;;;22.20;68.10;;;;;;4981596;28;20165;-21
2022/07/09 12:15:23;;;;;;;0.30;0.30;;;22.20;68.00;;;;;;4981143;28;20514;-21
2022/07/09 12:17:59;;;;;;;0.40;0.40;;;22.10;68.00;;;;;;4968053;28;20061;-20
2022/07/09 12:20:26;;;;;;;0.30;0.30;;;22.10;68.20;;;;;;4974952;28;20054;-21
2022/07/09 12:22:52;;;;;;;0.35;0.35;;;22.10;68.10;;;;;;4973146;28;20133;-21
2022/07/09 12:25:18;;;;;;;0.30;0.30;;;22.20;68.00;;;;;;4985768;28;20189;-21
2022/07/09 12:27:43;;;;;;;0.55;0.55;;;22.10;68.10;;;;;;4976156;28;20043;-20
2022/07/09 12:30:09;;;;;;;0.50;0.50;;;22.20;68.00;;;;;;4979901;28;20053;-21
2022/07/09 12:32:35;;;;;;;0.32;0.32;;;22.20;68.10;;;;;;4967176;28;20039;-18
2022/07/09 12:35:01;;;;;;;0.30;0.30;;;22.20;68.00;;;;;;4980946;28;20141;-20
2022/07/09 12:37:27;;;;;;;0.40;0.40;;;22.20;68.00;;;;;;4971844;28;20043;-21
2022/07/09 12:39:53;;;;;;;0.40;0.40;;;22.20;67.80;;;;;;4973550;28;20527;-21
2022/07/09 12:42:19;;;;;;;0.45;0.45;;;22.20;67.80;;;;;;4980485;28;20504;-20
2022/07/09 12:44:45;;;;;;;0.38;0.38;;;22.30;67.80;;;;;;4984420;28;20065;-20
2022/07/09 12:47:11;;;;;;;0.50;0.50;;;22.30;67.60;;;;;;4977314;28;20050;-21
2022/07/09 12:49:37;;;;;;;0.40;0.40;;;22.30;67.60;;;;;;4984651;28;20528;-19
2022/07/09 12:52:02;;;;;;;0.30;0.30;;;22.30;67.40;;;;;;4984644;28;20038;-20
2022/07/09 12:54:28;;;;;;;0.30;0.30;;;22.40;67.30;;;;;;4984624;28;20458;-20
2022/07/09 12:56:55;;;;;;;0.30;0.30;;;22.40;67.20;;;;;;4984936;28;20050;-20
2022/07/09 12:59:20;;;;;;;0.30;0.30;;;22.40;67.10;;;;;;4986636;28;20584;-20
2022/07/09 13:01:46;;;;;;;0.40;0.40;;;22.40;67.40;;;;;;4983569;28;20157;-21
2022/07/09 13:04:12;;;;;;;0.30;0.30;;;22.30;67.50;;;;;;4985556;28;20043;-20
2022/07/09 13:06:37;;;;;;;0.20;0.20;;;22.30;67.60;;;;;;4983931;28;20070;-20
2022/07/09 13:09:05;;;;;;;0.30;0.30;;;22.40;67.10;;;;;;4979995;28;20408;-20
2022/07/09 13:11:31;;;;;;;0.30;0.30;;;22.40;67.20;;;;;;4983511;28;20053;-20
2022/07/09 13:13:57;;;;;;;0.30;0.30;;;22.40;67.10;;;;;;4985990;28;20054;-21
2022/07/09 13:16:23;;;;;;;0.43;0.43;;;22.40;67.10;;;;;;4986857;28;20520;-20
2022/07/09 13:18:49;;;;;;;0.30;0.30;;;22.40;67.20;;;;;;4987117;28;20069;-20
2022/07/09 13:21:15;;;;;;;0.20;0.20;;;22.40;67.30;;;;;;4990135;28;20050;-21
2022/07/09 13:23:41;;;;;;;0.30;0.30;;;22.40;67.30;;;;;;4980090;28;20176;-20
2022/07/09 13:26:07;;;;;;;0.30;0.30;;;22.40;67.30;;;;;;4987495;28;20043;-22
2022/07/09 13:28:32;;;;;;;0.35;0.35;;;22.40;67.30;;;;;;4991810;28;20062;-21
2022/07/09 13:30:58;;;;;;;0.82;0.40;;;22.40;67.30;;;;;;4979304;28;20515;-21
2022/07/09 13:33:23;;;;;;;0.40;0.30;;;22.40;67.20;;;;;;4980370;28;20134;-20
2022/07/09 13:35:49;;;;;;;0.30;0.30;;;22.40;67.30;;;;;;4977257;28;20050;-22
2022/07/09 13:38:15;;;;;;;0.30;0.30;;;22.40;67.30;;;;;;4979722;28;20045;-20
2022/07/09 13:40:40;;;;;;;0.35;0.35;;;22.40;67.20;;;;;;4987289;28;20149;-21
2022/07/09 13:43:06;;;;;;;0.45;0.45;;;22.40;67.20;;;;;;4983788;28;20092;-21
2022/07/09 13:45:31;;;;;;;0.30;0.30;;;22.40;67.20;;;;;;4988600;28;20060;-21
2022/07/09 13:47:57;;;;;;;0.40;0.30;;;22.40;67.30;;;;;;4985685;28;20042;-20
2022/07/09 13:50:23;;;;;;;0.20;0.20;;;22.40;67.30;;;;;;4986683;28;20619;-21
2022/07/09 13:52:48;;;;;;;0.28;0.28;;;22.40;67.30;;;;;;4988748;28;20118;-21
2022/07/09 13:55:14;;;;;;;0.40;0.40;;;22.50;67.10;;;;;;4986257;28;20075;-26
2022/07/09 13:57:40;;;;;;;0.20;0.20;;;22.50;67.10;;;;;;4985738;28;20043;-24
2022/07/09 14:00:06;;;;;;;0.22;0.22;;;22.50;67.00;;;;;;4983559;28;20101;-30
2022/07/09 14:02:34;;;;;;;0.20;0.20;;;22.50;67.00;;;;;;4985746;28;20452;-20
2022/07/09 14:05:01;;;;;;;0.30;0.30;;;22.50;66.90;;;;;;4986557;28;20049;-21
2022/07/09 14:07:26;;;;;;;0.30;0.30;;;22.50;67.00;;;;;;4988631;28;20073;-20
2022/07/09 14:09:52;;;;;;;0.35;0.30;;;22.50;67.00;;;;;;4983574;28;20077;-20
2022/07/09 14:12:18;;;;;;;0.40;0.40;;;22.50;67.00;;;;;;4986525;28;20045;-20
2022/07/09 14:14:43;;;;;;;0.35;0.35;;;22.60;66.80;;;;;;4990991;28;20340;-20
2022/07/09 14:17:09;;;;;;;0.28;0.28;;;22.60;66.60;;;;;;4986763;28;20149;-21
2022/07/09 14:19:35;;;;;;;0.40;0.40;;;22.60;66.90;;;;;;4991283;28;20505;-20
2022/07/09 14:22:00;;;;;;;0.30;0.30;;;22.50;66.80;;;;;;4982562;28;20057;-21
2022/07/09 14:24:26;;;;;;;0.20;0.20;;;22.50;66.80;;;;;;4985793;28;20134;-21
2022/07/09 14:26:51;;;;;;;0.20;0.17;;;22.50;66.80;;;;;;4984225;28;20541;-20
2022/07/09 14:29:17;;;;;;;0.40;0.40;;;22.60;66.90;;;;;;4986619;28;20046;-20
2022/07/09 14:31:43;;;;;;;0.40;0.40;;;22.60;66.80;;;;;;4991630;28;20464;-20
2022/07/09 14:34:08;;;;;;;0.25;0.25;;;22.50;66.70;;;;;;4986733;28;20113;-20
2022/07/09 14:36:34;;;;;;;0.30;0.30;;;22.50;66.80;;;;;;4986986;28;20540;-21
2022/07/09 14:39:01;;;;;;;0.22;0.22;;;22.60;66.80;;;;;;4983613;28;20108;-21
2022/07/09 14:41:27;;;;;;;0.40;0.40;;;22.60;66.70;;;;;;4988541;28;20062;-21
2022/07/09 14:43:53;;;;;;;0.30;0.30;;;22.60;66.70;;;;;;4986303;28;20073;-20
2022/07/09 14:46:19;;;;;;;0.20;0.20;;;22.60;66.70;;;;;;4986584;28;20556;-20
2022/07/09 14:48:44;;;;;;;0.20;0.20;;;22.60;66.80;;;;;;4985359;28;20038;-20
2022/07/09 14:51:10;;;;;;;0.30;0.30;;;22.60;66.70;;;;;;4987379;28;20046;-20
2022/07/09 14:53:35;;;;;;;0.30;0.30;;;22.60;66.70;;;;;;4983817;28;20138;-20
2022/07/09 14:56:01;;;;;;;0.30;0.30;;;22.60;66.70;;;;;;4986871;28;20038;-21
2022/07/09 14:58:26;;;;;;;0.30;0.30;;;22.50;66.70;;;;;;4985243;28;20114;-21
2022/07/09 15:00:52;;;;;;;0.40;0.40;;;22.60;66.70;;;;;;4986224;28;20038;-20
2022/07/09 15:03:18;;;;;;;0.20;0.20;;;22.60;66.70;;;;;;4987509;28;20125;-20
2022/07/09 15:05:43;;;;;;;0.30;0.30;;;22.60;66.80;;;;;;4985337;28;20460;-19
2022/07/09 15:08:10;;;;;;;0.30;0.30;;;22.60;66.70;;;;;;4985916;28;20057;-21
2022/07/09 15:10:36;;;;;;;0.20;0.20;;;22.60;66.70;;;;;;4987574;28;20080;-20
2022/07/09 15:13:02;;;;;;;0.25;0.25;;;22.60;66.70;;;;;;4985444;28;20451;-20
2022/07/09 15:15:28;;;;;;;1.38;0.28;;;22.60;66.70;;;;;;4984250;28;20038;-21
2022/07/09 15:17:53;;;;;;;0.28;0.28;;;22.60;66.70;;;;;;4985811;28;20150;-21
2022/07/09 15:20:19;;;;;;;0.22;0.22;;;22.60;66.70;;;;;;4987080;28;20046;-20
2022/07/09 15:22:45;;;;;;;0.20;0.20;;;22.60;66.70;;;;;;4986652;28;20539;-19
2022/07/09 15:25:10;;;;;;;0.30;0.30;;;22.60;66.60;;;;;;4986336;28;20053;-21
2022/07/09 15:27:36;;;;;;;0.30;0.20;;;22.60;66.70;;;;;;4985866;28;20041;-21
2022/07/09 15:30:02;;;;;;;0.28;0.28;;;22.60;66.70;;;;;;4984781;28;20060;-20
2022/07/09 15:32:28;;;;;;;0.30;0.30;;;22.60;66.60;;;;;;4985207;28;20038;-21
2022/07/09 15:34:54;;;;;;;0.20;0.20;;;22.60;66.60;;;;;;4987081;28;20046;-20
2022/07/09 15:37:20;;;;;;;0.30;0.30;;;22.60;66.70;;;;;;4984074;28;20058;-19
2022/07/09 15:39:45;;;;;;;0.30;0.30;;;22.60;66.60;;;;;;4986254;28;20461;-18
2022/07/09 15:42:11;;;;;;;0.22;0.22;;;22.60;66.60;;;;;;4986163;28;20042;-19
2022/07/09 15:44:37;;;;;;;0.35;0.32;;;22.60;66.60;;;;;;4985843;28;20073;-20
2022/07/09 15:47:03;;;;;;;0.30;0.30;;;22.60;66.60;;;;;;4987227;28;20412;-19
2022/07/09 15:49:31;;;;;;;0.30;0.30;;;22.60;66.70;;;;;;4985141;28;20047;-19
2022/07/09 15:51:56;;;;;;;0.40;0.20;;;22.60;67.30;;;;;;4985944;28;20034;-19
2022/07/09 15:54:23;;;;;;;0.30;0.30;;;22.60;66.40;;;;;;4985886;28;20420;-19
2022/07/09 15:56:50;;;;;;;0.40;0.40;;;22.60;66.50;;;;;;4985890;28;20038;-18
2022/07/09 15:59:16;;;;;;;0.40;0.25;;;22.70;66.60;;;;;;4985918;28;20053;-19
2022/07/09 16:01:41;;;;;;;0.30;0.30;;;22.60;66.60;;;;;;4983510;28;20030;-20
2022/07/09 16:04:07;;;;;;;0.20;0.20;;;22.70;66.50;;;;;;4985725;28;20604;-19
2022/07/09 16:06:32;;;;;;;0.30;0.30;;;22.70;66.50;;;;;;4984427;28;20096;-18
2022/07/09 16:08:58;;;;;;;0.30;0.30;;;22.70;66.50;;;;;;4984206;28;20054;-18
2022/07/09 16:14:08;;;;;;;0.30;0.30;;;22.70;66.60;;;;;;4984436;28;20065;-18
2022/07/09 16:16:34;;;;;;;0.20;0.20;;;22.60;66.50;;;;;;4983580;28;20052;-18
2022/07/09 16:19:00;;;;;;;0.32;0.20;;;22.70;66.70;;;;;;4984924;28;20039;-18
2022/07/09 16:21:26;;;;;;;0.60;0.60;;;22.60;67.40;;;;;;4986640;28;20057;-19
2022/07/09 16:23:52;;;;;;;0.30;0.30;;;22.60;66.70;;;;;;4984566;28;20069;-18
2022/07/09 16:26:17;;;;;;;0.30;0.30;;;22.60;66.70;;;;;;4985189;28;20070;-19
2022/07/09 16:28:43;;;;;;;0.32;0.32;;;22.70;66.70;;;;;;4986664;28;20133;-19
2022/07/09 16:31:08;;;;;;;0.25;0.25;;;22.60;66.70;;;;;;4983683;28;20054;-19
2022/07/09 16:33:34;;;;;;;0.32;0.32;;;22.60;66.70;;;;;;4986243;28;20381;-19
2022/07/09 16:35:59;;;;;;;0.30;0.30;;;22.60;66.60;;;;;;4986885;28;20051;-19
2022/07/09 16:38:25;;;;;;;0.30;0.30;;;22.70;66.70;;;;;;4982385;28;20047;-18
2022/07/09 16:40:51;;;;;;;0.30;0.30;;;22.60;66.60;;;;;;4985711;28;20125;-18
2022/07/09 16:43:16;;;;;;;0.30;0.30;;;22.60;66.70;;;;;;4984395;28;20515;-19
2022/07/09 16:45:42;;;;;;;0.20;0.20;;;22.70;66.60;;;;;;4985938;28;20069;-19
2022/07/09 16:48:07;;;;;;;0.40;0.30;;;22.70;66.60;;;;;;4984261;28;20038;-18
2022/07/09 16:50:33;;;;;;;0.82;0.30;;;22.70;66.60;;;;;;4984093;28;20116;-19
2022/07/09 16:52:59;;;;;;;0.20;0.20;;;22.70;66.70;;;;;;4984728;28;20043;-18
2022/07/09 16:55:25;;;;;;;0.20;0.20;;;22.70;66.70;;;;;;4985866;28;20058;-19
2022/07/09 16:57:51;;;;;;;0.40;0.40;;;22.70;66.80;;;;;;4984059;28;20146;-18